Time;durP1;ratioP1;P1;durP2;ratioP2;P2;SDS_P1;SDS_P2;PMS_P1;PMS_P2;Temp;Humidity;BMP_temperature;BMP_pressure;BME280_temperature;BME280_humidity;BME280_pressure;Samples;Min_cycle;Max_cycle;Signal;HPM_P1;HPM_P2
2023/08/18 00:01:17;;;;;;;4.30;2.17;;;18.80;99.90;;;;;;4948557;28;20023;-73
2023/08/18 00:03:43;;;;;;;3.25;2.03;;;18.70;99.90;;;;;;4948632;28;20651;-73
2023/08/18 00:06:09;;;;;;;4.20;2.25;;;18.70;99.90;;;;;;4947764;28;20045;-72
2023/08/18 00:08:34;;;;;;;4.45;2.33;;;18.60;99.90;;;;;;4948705;28;20039;-72
2023/08/18 00:11:01;;;;;;;4.13;2.40;;;18.60;99.90;;;;;;4947951;28;20100;-72
2023/08/18 00:13:26;;;;;;;3.22;1.88;;;18.60;99.90;;;;;;4948694;28;20574;-72
2023/08/18 00:15:52;;;;;;;3.95;2.20;;;18.60;99.90;;;;;;4947426;28;20122;-72
2023/08/18 00:18:18;;;;;;;4.75;2.55;;;18.60;99.90;;;;;;4948598;28;20043;-72
2023/08/18 00:20:43;;;;;;;3.30;2.25;;;18.60;99.90;;;;;;4980932;28;20051;-73
2023/08/18 00:23:09;;;;;;;3.20;2.33;;;18.50;99.90;;;;;;4947649;28;20042;-73
2023/08/18 00:25:34;;;;;;;3.95;1.75;;;18.50;99.90;;;;;;4948344;28;20147;-72
2023/08/18 00:28:00;;;;;;;5.22;2.72;;;18.50;99.90;;;;;;4948545;28;20054;-71
2023/08/18 00:30:26;;;;;;;4.10;2.05;;;18.50;99.90;;;;;;4978994;28;20033;-73
2023/08/18 00:32:52;;;;;;;3.28;1.90;;;18.40;99.90;;;;;;4948392;28;20043;-73
2023/08/18 00:35:17;;;;;;;5.03;2.53;;;18.40;99.90;;;;;;4980506;28;20032;-72
2023/08/18 00:37:44;;;;;;;4.38;2.53;;;18.40;99.90;;;;;;4948930;28;20043;-71
2023/08/18 00:40:11;;;;;;;3.35;1.90;;;18.40;99.90;;;;;;4979763;28;20067;-72
2023/08/18 00:42:36;;;;;;;4.13;2.25;;;18.50;99.90;;;;;;4948652;28;20043;-72
2023/08/18 00:45:03;;;;;;;3.92;1.95;;;18.50;99.90;;;;;;4947810;28;20031;-73
2023/08/18 00:47:30;;;;;;;3.72;1.90;;;18.40;99.90;;;;;;4980303;28;20031;-73
2023/08/18 00:49:57;;;;;;;4.70;2.10;;;18.40;99.90;;;;;;4948061;28;20031;-72
2023/08/18 00:52:23;;;;;;;4.65;2.80;;;18.30;99.90;;;;;;4952807;28;20043;-72
2023/08/18 00:54:51;;;;;;;3.97;2.25;;;18.40;99.90;;;;;;4948356;28;20047;-72
2023/08/18 00:57:17;;;;;;;4.53;2.55;;;18.30;99.90;;;;;;4996606;28;20039;-72
2023/08/18 00:59:43;;;;;;;3.38;2.22;;;18.40;99.90;;;;;;4978948;28;20093;-72
2023/08/18 01:02:09;;;;;;;3.63;2.35;;;18.30;99.90;;;;;;4980149;28;20043;-72
2023/08/18 01:04:35;;;;;;;4.68;2.40;;;18.30;99.90;;;;;;4948359;28;20126;-73
2023/08/18 01:07:01;;;;;;;3.17;2.03;;;18.30;99.90;;;;;;4993742;28;20110;-72
2023/08/18 01:09:27;;;;;;;3.97;2.65;;;18.30;99.90;;;;;;4948194;28;20395;-73
2023/08/18 01:12:02;;;;;;;6.00;2.90;;;18.20;99.90;;;;;;4984314;28;20040;-71
2023/08/18 01:14:43;;;;;;;4.93;2.17;;;18.20;99.90;;;;;;4980158;28;20550;-73
2023/08/18 01:17:20;;;;;;;5.15;2.22;;;18.20;99.90;;;;;;4947691;28;20375;-73
2023/08/18 01:19:47;;;;;;;3.85;2.38;;;18.20;99.90;;;;;;4948009;28;20035;-71
2023/08/18 01:22:16;;;;;;;4.60;2.47;;;18.20;99.90;;;;;;4957979;28;20742;-73
2023/08/18 01:24:42;;;;;;;3.83;2.40;;;18.20;99.90;;;;;;4947719;28;20032;-73
2023/08/18 01:27:07;;;;;;;4.53;2.47;;;18.10;99.90;;;;;;4978778;28;20770;-72
2023/08/18 01:29:33;;;;;;;4.88;2.75;;;18.10;99.90;;;;;;4947458;28;20035;-73
2023/08/18 01:32:01;;;;;;;3.97;2.25;;;18.10;99.90;;;;;;4947056;28;20031;-71
2023/08/18 01:34:29;;;;;;;3.63;2.63;;;18.10;99.90;;;;;;4947733;28;20032;-73
2023/08/18 01:36:57;;;;;;;4.30;2.50;;;18.10;99.90;;;;;;4946933;28;20047;-73
2023/08/18 01:39:25;;;;;;;4.75;2.90;;;18.00;99.90;;;;;;4979210;28;20058;-71
2023/08/18 01:41:52;;;;;;;13.07;3.80;;;18.10;99.90;;;;;;4946612;28;20023;-73
2023/08/18 01:44:21;;;;;;;4.28;2.60;;;18.10;99.90;;;;;;4947677;28;20431;-72
2023/08/18 01:46:47;;;;;;;4.95;2.70;;;18.10;99.90;;;;;;4944221;28;20043;-71
2023/08/18 01:49:13;;;;;;;4.47;2.95;;;18.10;99.90;;;;;;4946807;28;20031;-73
2023/08/18 01:51:39;;;;;;;5.60;2.80;;;18.00;99.90;;;;;;4979557;28;20031;-73
2023/08/18 01:54:05;;;;;;;5.90;3.63;;;18.00;99.90;;;;;;4946477;28;20118;-72
2023/08/18 01:56:30;;;;;;;4.45;3.15;;;18.10;99.90;;;;;;4947471;28;20585;-72
2023/08/18 01:58:56;;;;;;;5.00;3.03;;;18.00;99.90;;;;;;4946591;28;20035;-73
2023/08/18 02:01:22;;;;;;;5.68;3.22;;;17.90;99.90;;;;;;4978971;28;20487;-71
2023/08/18 02:03:47;;;;;;;6.07;2.70;;;17.90;99.90;;;;;;4947129;28;20169;-73
2023/08/18 02:06:13;;;;;;;4.13;2.63;;;17.90;99.90;;;;;;4942253;28;20031;-72
2023/08/18 02:08:39;;;;;;;6.15;3.80;;;17.90;99.90;;;;;;4947204;28;20131;-73
2023/08/18 02:11:05;;;;;;;5.55;3.22;;;17.80;99.90;;;;;;4946093;28;20039;-72
2023/08/18 02:13:32;;;;;;;4.25;2.60;;;17.80;99.90;;;;;;4978754;28;20103;-72
2023/08/18 02:15:58;;;;;;;5.05;3.20;;;17.80;99.90;;;;;;4951354;28;20070;-73
2023/08/18 02:18:24;;;;;;;6.03;3.30;;;17.70;99.90;;;;;;4949463;28;20027;-72
2023/08/18 02:20:56;;;;;;;7.32;3.30;;;17.70;99.90;;;;;;4946261;28;20555;-72
2023/08/18 02:23:22;;;;;;;7.05;3.33;;;17.70;99.90;;;;;;4946657;28;20039;-73
2023/08/18 02:25:47;;;;;;;10.35;3.88;;;17.70;99.90;;;;;;4946721;28;20517;-73
2023/08/18 02:28:14;;;;;;;5.72;3.35;;;17.60;99.90;;;;;;4977876;28;20043;-73
2023/08/18 02:30:39;;;;;;;5.55;3.28;;;17.70;99.90;;;;;;4978499;28;20441;-72
2023/08/18 02:33:05;;;;;;;5.85;3.50;;;17.60;99.90;;;;;;4945940;28;20042;-73
2023/08/18 02:35:31;;;;;;;6.13;3.33;;;17.70;99.90;;;;;;4946393;28;20126;-73
2023/08/18 02:37:56;;;;;;;7.05;3.03;;;17.60;99.90;;;;;;4945662;28;20059;-73
2023/08/18 02:40:22;;;;;;;4.97;3.13;;;17.60;99.90;;;;;;4946606;28;20059;-73
2023/08/18 02:42:47;;;;;;;6.03;3.38;;;17.60;99.90;;;;;;5002126;28;20038;-73
2023/08/18 02:45:13;;;;;;;5.35;3.20;;;17.50;99.90;;;;;;4953553;28;20189;-73
2023/08/18 02:47:38;;;;;;;6.47;3.42;;;17.60;99.90;;;;;;4952616;28;20039;-73
2023/08/18 02:50:06;;;;;;;4.93;2.53;;;17.50;99.90;;;;;;4950801;28;20486;-72
2023/08/18 02:52:32;;;;;;;4.88;2.15;;;17.50;99.90;;;;;;4947223;28;20043;-70
2023/08/18 02:54:57;;;;;;;4.93;2.72;;;17.50;99.90;;;;;;4949045;28;20036;-71
2023/08/18 02:57:23;;;;;;;3.38;2.10;;;17.50;99.90;;;;;;4950117;28;20487;-72
2023/08/18 02:59:49;;;;;;;4.47;2.40;;;17.50;99.90;;;;;;4993404;28;20410;-74
2023/08/18 03:02:14;;;;;;;4.68;2.60;;;17.50;99.90;;;;;;4950403;28;20118;-72
2023/08/18 03:04:40;;;;;;;6.30;2.95;;;17.50;99.90;;;;;;4994770;28;20046;-71
2023/08/18 03:07:05;;;;;;;4.93;2.50;;;17.50;99.90;;;;;;4949644;28;20024;-73
2023/08/18 03:09:31;;;;;;;4.68;2.60;;;17.40;99.90;;;;;;4982423;28;20039;-73
2023/08/18 03:11:57;;;;;;;4.35;2.45;;;17.40;99.90;;;;;;4949911;28;20426;-73
2023/08/18 03:14:23;;;;;;;4.57;2.72;;;17.40;99.90;;;;;;4950215;28;20458;-73
2023/08/18 03:16:48;;;;;;;4.40;2.72;;;17.30;99.90;;;;;;4949147;28;20042;-74
2023/08/18 03:19:14;;;;;;;4.57;2.85;;;17.30;99.90;;;;;;4948809;28;20039;-73
2023/08/18 03:21:39;;;;;;;5.18;2.30;;;17.20;99.90;;;;;;4982818;28;20127;-73
2023/08/18 03:24:05;;;;;;;7.47;2.65;;;17.20;99.90;;;;;;4981306;28;20502;-71
2023/08/18 03:26:31;;;;;;;5.32;2.78;;;17.20;99.90;;;;;;4949471;28;20655;-73
2023/08/18 03:28:57;;;;;;;5.35;2.83;;;17.20;99.90;;;;;;4948134;28;20031;-72
2023/08/18 03:31:23;;;;;;;6.80;3.33;;;17.20;99.90;;;;;;4949857;28;20046;-72
2023/08/18 03:33:49;;;;;;;6.25;2.90;;;17.20;99.90;;;;;;4981554;28;20101;-77
2023/08/18 03:36:14;;;;;;;4.30;2.40;;;17.20;99.90;;;;;;4949479;28;20031;-71
2023/08/18 03:38:40;;;;;;;5.47;2.53;;;17.20;99.90;;;;;;4950323;28;20043;-72
2023/08/18 03:41:06;;;;;;;5.00;2.55;;;17.20;99.90;;;;;;4996873;28;20039;-73
2023/08/18 03:43:33;;;;;;;5.40;2.38;;;17.20;99.90;;;;;;4981394;28;20486;-72
2023/08/18 03:46:01;;;;;;;6.97;2.53;;;17.20;99.90;;;;;;4952606;28;20066;-72
2023/08/18 03:48:27;;;;;;;5.00;2.80;;;17.10;99.90;;;;;;5003216;28;20088;-74
2023/08/18 03:50:52;;;;;;;6.60;2.47;;;17.20;99.90;;;;;;4948904;28;20502;-71
2023/08/18 03:53:22;;;;;;;3.70;2.20;;;17.20;99.90;;;;;;4949105;28;20066;-73
2023/08/18 03:55:52;;;;;;;6.25;2.55;;;17.20;99.90;;;;;;4949544;28;20039;-72
2023/08/18 03:58:18;;;;;;;4.30;2.45;;;17.20;99.90;;;;;;4949412;28;20047;-73
2023/08/18 04:00:44;;;;;;;5.10;2.30;;;17.10;99.90;;;;;;4950013;28;20035;-72
2023/08/18 04:03:09;;;;;;;4.85;2.45;;;17.10;99.90;;;;;;4949040;28;20036;-72
2023/08/18 04:05:36;;;;;;;5.80;2.47;;;17.10;99.90;;;;;;4949726;28;20546;-72
2023/08/18 04:08:02;;;;;;;8.65;3.22;;;17.20;99.90;;;;;;4948967;28;20039;-73
2023/08/18 04:10:27;;;;;;;4.53;2.88;;;17.20;99.90;;;;;;4949858;28;20090;-73
2023/08/18 04:12:53;;;;;;;4.53;2.58;;;17.10;99.90;;;;;;4949311;28;20032;-73
2023/08/18 04:15:19;;;;;;;4.75;2.53;;;17.10;99.90;;;;;;4948947;28;20039;-73
2023/08/18 04:17:44;;;;;;;5.60;2.78;;;17.10;99.90;;;;;;4948914;28;20034;-73
2023/08/18 04:20:10;;;;;;;4.95;3.05;;;17.10;99.90;;;;;;4947809;28;20043;-72
2023/08/18 04:22:36;;;;;;;7.00;3.25;;;17.10;99.90;;;;;;4993484;28;20720;-72
2023/08/18 04:25:01;;;;;;;5.35;2.75;;;17.10;99.90;;;;;;4979657;28;20035;-72
2023/08/18 04:27:27;;;;;;;4.45;2.70;;;17.00;99.90;;;;;;4985136;28;20043;-74
2023/08/18 04:29:54;;;;;;;6.78;2.88;;;17.10;99.90;;;;;;4979872;28;20043;-73
2023/08/18 04:32:19;;;;;;;8.65;3.25;;;17.20;99.90;;;;;;4949303;28;20066;-72
2023/08/18 04:34:45;;;;;;;4.35;2.55;;;17.10;99.90;;;;;;4948935;28;20447;-73
2023/08/18 04:37:10;;;;;;;4.13;2.83;;;17.20;99.90;;;;;;4980764;28;20054;-72
2023/08/18 04:39:36;;;;;;;6.07;3.00;;;17.10;99.90;;;;;;4948925;28;20039;-73
2023/08/18 04:42:01;;;;;;;5.28;3.13;;;17.10;99.90;;;;;;4948569;28;20062;-73
2023/08/18 04:44:27;;;;;;;6.15;3.10;;;17.10;99.90;;;;;;4948756;28;20050;-73
2023/08/18 04:46:52;;;;;;;3.72;2.60;;;17.10;99.90;;;;;;4948220;28;20079;-74
2023/08/18 04:49:18;;;;;;;4.70;2.58;;;17.10;99.90;;;;;;4948740;28;20031;-72
2023/08/18 04:51:43;;;;;;;6.32;3.03;;;17.10;99.90;;;;;;4948803;28;20035;-73
2023/08/18 04:54:09;;;;;;;5.18;2.67;;;17.10;99.90;;;;;;4948242;28;20540;-72
2023/08/18 04:56:37;;;;;;;5.07;2.55;;;17.10;99.90;;;;;;4948615;28;20081;-73
2023/08/18 04:59:03;;;;;;;5.82;2.95;;;17.20;99.90;;;;;;4946934;28;20032;-73
2023/08/18 05:01:28;;;;;;;5.05;2.53;;;17.20;99.90;;;;;;4947872;28;20119;-72
2023/08/18 05:03:54;;;;;;;5.88;2.92;;;17.10;99.90;;;;;;4979440;28;20051;-71
2023/08/18 05:06:19;;;;;;;5.32;3.30;;;17.20;99.90;;;;;;4948055;28;20062;-72
2023/08/18 05:08:45;;;;;;;7.00;2.63;;;17.10;99.90;;;;;;4947776;28;20035;-73
2023/08/18 05:11:12;;;;;;;5.68;3.25;;;17.20;99.90;;;;;;4979071;28;20050;-72
2023/08/18 05:13:39;;;;;;;6.05;3.10;;;17.20;99.90;;;;;;4948326;28;20071;-73
2023/08/18 05:16:05;;;;;;;5.18;2.83;;;17.20;99.90;;;;;;4965780;28;20043;-73
2023/08/18 05:18:31;;;;;;;5.55;3.05;;;17.20;99.90;;;;;;4948278;28;20109;-73
2023/08/18 05:20:58;;;;;;;6.45;3.20;;;17.30;99.90;;;;;;4947202;28;20059;-72
2023/08/18 05:23:25;;;;;;;5.00;2.40;;;17.30;99.90;;;;;;4980583;28;20069;-73
2023/08/18 05:25:54;;;;;;;6.22;2.60;;;17.30;99.90;;;;;;4946793;28;20082;-74
2023/08/18 05:28:21;;;;;;;5.57;2.95;;;17.40;99.90;;;;;;4947063;28;20085;-72
2023/08/18 05:30:47;;;;;;;4.88;2.80;;;17.30;99.90;;;;;;4947248;28;20036;-73
2023/08/18 05:33:13;;;;;;;6.80;3.45;;;17.40;99.90;;;;;;4946609;28;20115;-72
2023/08/18 05:35:39;;;;;;;8.02;3.30;;;17.40;99.90;;;;;;4946903;28;20043;-72
2023/08/18 05:38:10;;;;;;;6.65;3.33;;;17.40;99.90;;;;;;4946807;28;20035;-72
2023/08/18 05:40:48;;;;;;;6.35;3.35;;;17.40;99.90;;;;;;4944145;28;20050;-73
2023/08/18 05:43:15;;;;;;;6.03;3.53;;;17.50;99.90;;;;;;4978002;28;20042;-72
2023/08/18 05:45:42;;;;;;;6.05;3.40;;;17.50;99.90;;;;;;4946826;28;20077;-72
2023/08/18 05:48:08;;;;;;;6.65;3.65;;;17.60;99.90;;;;;;4945935;28;20108;-72
2023/08/18 05:50:34;;;;;;;6.97;4.07;;;17.60;99.90;;;;;;4947452;28;20499;-72
2023/08/18 05:53:01;;;;;;;6.85;3.30;;;17.60;99.90;;;;;;4946443;28;20039;-73
2023/08/18 05:55:27;;;;;;;5.13;3.25;;;17.60;99.90;;;;;;4946971;28;20122;-72
2023/08/18 05:57:54;;;;;;;6.80;3.67;;;17.60;99.90;;;;;;4946843;28;20043;-73
2023/08/18 06:00:20;;;;;;;7.32;4.28;;;17.60;99.90;;;;;;4947057;28;20483;-73
2023/08/18 06:02:46;;;;;;;7.65;3.17;;;17.60;99.90;;;;;;4947352;28;20126;-72
2023/08/18 06:05:12;;;;;;;8.75;3.97;;;17.60;99.90;;;;;;4977927;28;20047;-72
2023/08/18 06:07:41;;;;;;;9.25;4.03;;;17.70;99.90;;;;;;4947022;28;20036;-72
2023/08/18 06:10:08;;;;;;;5.72;3.80;;;17.70;99.90;;;;;;4945881;28;20031;-74
2023/08/18 06:12:33;;;;;;;6.53;4.07;;;17.70;99.90;;;;;;4952232;28;20091;-72
2023/08/18 06:14:59;;;;;;;9.00;4.32;;;17.70;99.90;;;;;;4954412;28;20035;-72
2023/08/18 06:17:25;;;;;;;9.30;4.72;;;17.80;99.90;;;;;;5021588;28;20039;-72
2023/08/18 06:19:51;;;;;;;9.85;4.63;;;17.70;99.90;;;;;;4955483;28;20536;-72
2023/08/18 06:22:17;;;;;;;8.65;3.90;;;17.80;99.90;;;;;;4947224;28;20035;-73
2023/08/18 06:24:42;;;;;;;10.38;4.78;;;17.90;99.90;;;;;;4947080;28;20047;-72
2023/08/18 06:27:08;;;;;;;8.43;3.95;;;17.90;99.90;;;;;;4978481;28;20032;-72
2023/08/18 06:29:33;;;;;;;8.00;3.85;;;17.90;99.90;;;;;;4947308;28;20050;-73
2023/08/18 06:31:59;;;;;;;8.75;4.35;;;18.00;99.90;;;;;;4946598;28;20035;-72
2023/08/18 06:34:25;;;;;;;9.32;4.30;;;18.10;99.90;;;;;;4949562;28;20042;-72
2023/08/18 06:36:51;;;;;;;7.70;3.60;;;18.10;99.90;;;;;;4954770;28;20038;-75
2023/08/18 06:39:16;;;;;;;9.52;4.35;;;18.10;99.90;;;;;;4946529;28;20038;-73
2023/08/18 06:41:43;;;;;;;8.50;5.05;;;18.20;99.90;;;;;;4978616;28;20043;-72
2023/08/18 06:44:09;;;;;;;8.18;3.83;;;18.30;99.90;;;;;;4946569;28;20160;-73
2023/08/18 06:46:35;;;;;;;8.90;3.42;;;18.30;99.90;;;;;;4977861;28;20058;-71
2023/08/18 06:49:02;;;;;;;7.22;3.83;;;18.40;99.90;;;;;;4945453;28;20478;-74
2023/08/18 06:51:28;;;;;;;8.23;3.92;;;18.40;99.90;;;;;;4949340;28;20042;-73
2023/08/18 06:53:54;;;;;;;7.80;4.05;;;18.50;99.90;;;;;;4973392;28;20031;-73
2023/08/18 06:56:19;;;;;;;12.10;3.35;;;18.80;99.90;;;;;;5012869;28;20043;-71
2023/08/18 06:58:45;;;;;;;6.88;2.97;;;19.50;99.90;;;;;;4957666;28;20035;-72
2023/08/18 07:01:10;;;;;;;6.35;3.15;;;19.80;99.90;;;;;;4952658;28;20066;-72
2023/08/18 07:03:36;;;;;;;5.38;3.08;;;20.00;99.90;;;;;;4946797;28;20054;-71
2023/08/18 07:06:02;;;;;;;6.43;3.70;;;20.10;99.90;;;;;;4945843;28;20721;-72
2023/08/18 07:08:28;;;;;;;7.25;3.78;;;20.30;99.90;;;;;;4944314;28;20403;-72
2023/08/18 07:10:54;;;;;;;8.63;3.80;;;20.20;99.90;;;;;;4946057;28;20036;-72
2023/08/18 07:13:21;;;;;;;7.55;3.83;;;20.30;99.90;;;;;;4946408;28;20046;-72
2023/08/18 07:15:47;;;;;;;7.20;3.80;;;20.20;99.90;;;;;;4976708;28;20069;-73
2023/08/18 07:18:13;;;;;;;8.68;4.07;;;20.10;99.90;;;;;;4946267;28;20670;-73
2023/08/18 07:20:40;;;;;;;7.38;3.72;;;20.00;99.90;;;;;;4946407;28;20054;-73
2023/08/18 07:23:06;;;;;;;5.72;3.75;;;19.90;99.90;;;;;;4977536;28;20051;-73
2023/08/18 07:25:31;;;;;;;6.15;3.35;;;19.70;99.90;;;;;;4946050;28;20062;-73
2023/08/18 07:27:57;;;;;;;9.68;4.13;;;19.70;99.90;;;;;;4977017;28;20045;-73
2023/08/18 07:30:23;;;;;;;9.20;3.88;;;19.60;99.90;;;;;;4946570;28;20523;-73
2023/08/18 07:32:49;;;;;;;6.97;3.88;;;19.50;99.90;;;;;;4946897;28;20452;-73
2023/08/18 07:35:14;;;;;;;7.85;3.75;;;19.50;99.90;;;;;;4977518;28;20049;-72
2023/08/18 07:37:40;;;;;;;9.95;4.68;;;19.40;99.90;;;;;;4946206;28;20038;-73
2023/08/18 07:40:09;;;;;;;6.60;3.70;;;19.30;99.90;;;;;;4948537;28;20118;-73
2023/08/18 07:42:35;;;;;;;8.77;4.18;;;19.20;99.90;;;;;;4977861;28;20111;-72
2023/08/18 07:45:02;;;;;;;7.35;4.47;;;19.10;99.90;;;;;;4947734;28;20035;-73
2023/08/18 07:47:28;;;;;;;6.80;3.20;;;19.10;99.90;;;;;;4962050;28;20081;-73
2023/08/18 07:49:53;;;;;;;7.78;4.10;;;19.10;99.90;;;;;;4974344;28;20027;-74
2023/08/18 07:52:19;;;;;;;8.88;4.13;;;19.20;99.90;;;;;;4976031;28;20027;-71
2023/08/18 07:54:45;;;;;;;11.45;4.97;;;19.20;99.90;;;;;;4975600;28;20030;-72
2023/08/18 07:57:10;;;;;;;8.38;3.67;;;19.30;99.90;;;;;;4953760;28;20469;-71
2023/08/18 07:59:36;;;;;;;8.65;4.13;;;19.30;99.90;;;;;;4980655;28;20039;-73
2023/08/18 08:02:02;;;;;;;6.93;3.63;;;19.40;99.90;;;;;;4945389;28;20096;-71
2023/08/18 08:04:28;;;;;;;9.05;4.25;;;19.60;99.90;;;;;;4980710;28;20092;-73
2023/08/18 08:06:56;;;;;;;7.22;4.00;;;19.70;99.90;;;;;;4947620;28;20051;-72
2023/08/18 08:09:25;;;;;;;7.68;4.25;;;19.90;99.90;;;;;;4946796;28;20035;-72
2023/08/18 08:11:51;;;;;;;13.73;4.38;;;20.20;99.90;;;;;;4948600;28;20035;-73
2023/08/18 08:14:20;;;;;;;6.80;4.07;;;20.20;99.90;;;;;;4946444;28;20047;-73
2023/08/18 08:16:45;;;;;;;7.80;4.10;;;20.30;99.90;;;;;;4947996;28;20072;-72
2023/08/18 08:19:13;;;;;;;8.27;3.92;;;20.30;99.90;;;;;;4947588;28;20830;-72
2023/08/18 08:21:41;;;;;;;8.00;4.15;;;20.30;99.90;;;;;;4949241;28;20039;-72
2023/08/18 08:24:07;;;;;;;9.82;3.55;;;20.40;99.90;;;;;;4948420;28;20491;-72
2023/08/18 08:26:34;;;;;;;7.90;4.00;;;20.60;99.90;;;;;;4947573;28;20047;-72
2023/08/18 08:28:59;;;;;;;6.50;3.17;;;20.80;99.90;;;;;;4948052;28;20106;-71
2023/08/18 08:31:25;;;;;;;7.45;3.72;;;21.10;99.90;;;;;;4948981;28;20413;-72
2023/08/18 08:33:50;;;;;;;8.98;4.25;;;21.30;99.90;;;;;;4948787;28;20558;-72
2023/08/18 08:36:16;;;;;;;7.57;3.83;;;21.40;99.90;;;;;;4980069;28;20130;-71
2023/08/18 08:38:42;;;;;;;20.80;4.47;;;21.50;99.90;;;;;;4948721;28;20119;-71
2023/08/18 08:41:08;;;;;;;7.78;3.70;;;21.70;99.90;;;;;;4946726;28;20552;-71
2023/08/18 08:43:34;;;;;;;8.25;4.38;;;21.70;99.90;;;;;;4948766;28;20158;-72
2023/08/18 08:46:00;;;;;;;10.25;4.45;;;21.80;99.90;;;;;;4946624;28;20046;-73
2023/08/18 08:48:34;;;;;;;11.10;4.82;;;21.90;99.90;;;;;;4947798;28;20039;-72
2023/08/18 08:51:03;;;;;;;8.45;5.18;;;21.90;99.90;;;;;;4945592;28;20047;-72
2023/08/18 08:53:37;;;;;;;9.48;4.72;;;21.80;99.90;;;;;;4948145;28;20038;-72
2023/08/18 08:56:03;;;;;;;11.88;4.88;;;22.00;99.90;;;;;;4946485;28;20039;-71
2023/08/18 08:58:31;;;;;;;7.50;4.20;;;22.00;99.90;;;;;;4948201;28;20040;-72
2023/08/18 09:01:01;;;;;;;7.72;4.03;;;22.10;99.90;;;;;;4990645;28;20380;-73
2023/08/18 09:03:28;;;;;;;7.85;4.57;;;22.30;99.90;;;;;;4947908;28;20487;-72
2023/08/18 09:05:54;;;;;;;9.68;4.75;;;22.40;99.90;;;;;;4947135;28;20035;-72
2023/08/18 09:08:20;;;;;;;13.35;5.60;;;22.40;99.90;;;;;;4944574;28;20165;-73
2023/08/18 09:10:46;;;;;;;13.45;4.55;;;22.40;99.90;;;;;;4947773;28;20122;-72
2023/08/18 09:13:12;;;;;;;8.15;4.63;;;22.50;99.90;;;;;;4947779;28;20050;-71
2023/08/18 09:15:41;;;;;;;14.68;4.75;;;22.70;99.90;;;;;;4947784;28;20142;-72
2023/08/18 09:18:07;;;;;;;11.60;5.22;;;22.80;99.90;;;;;;4947359;28;20043;-70
2023/08/18 09:20:34;;;;;;;9.70;4.90;;;22.90;99.90;;;;;;4978912;28;20055;-71
2023/08/18 09:22:59;;;;;;;15.35;5.22;;;23.10;99.90;;;;;;4947372;28;20035;-72
2023/08/18 09:25:25;;;;;;;8.35;4.72;;;23.10;99.90;;;;;;4946769;28;20046;-71
2023/08/18 09:27:50;;;;;;;9.05;4.35;;;23.10;99.90;;;;;;4947685;28;20507;-71
2023/08/18 09:30:16;;;;;;;14.32;4.82;;;23.20;99.90;;;;;;4945825;28;20059;-72
2023/08/18 09:32:42;;;;;;;9.20;4.90;;;23.30;99.90;;;;;;4946995;28;20039;-73
2023/08/18 09:35:10;;;;;;;10.10;4.95;;;23.30;99.90;;;;;;4946300;28;20490;-72
2023/08/18 09:37:36;;;;;;;12.10;4.93;;;23.40;99.90;;;;;;4947427;28;20039;-71
2023/08/18 09:40:02;;;;;;;9.55;4.95;;;23.50;99.90;;;;;;4946456;28;20024;-72
2023/08/18 09:42:28;;;;;;;12.25;4.75;;;23.40;99.90;;;;;;4947328;28;20696;-71
2023/08/18 09:44:54;;;;;;;12.60;4.72;;;23.40;99.90;;;;;;4946721;28;20111;-72
2023/08/18 09:47:22;;;;;;;7.38;4.03;;;23.50;99.90;;;;;;4947865;28;20042;-71
2023/08/18 09:49:50;;;;;;;10.73;4.88;;;23.60;99.90;;;;;;4943955;28;20479;-71
2023/08/18 09:52:16;;;;;;;8.95;4.22;;;23.70;99.90;;;;;;4978223;28;20126;-73
2023/08/18 09:54:54;;;;;;;10.00;5.55;;;23.90;99.90;;;;;;4947724;28;20093;-71
2023/08/18 09:57:30;;;;;;;14.55;5.30;;;23.80;99.90;;;;;;4943914;28;20085;-72
2023/08/18 09:59:58;;;;;;;10.02;5.18;;;24.00;99.90;;;;;;4988896;28;20446;-71
2023/08/18 10:02:31;;;;;;;10.98;5.57;;;24.00;99.90;;;;;;4947224;28;20501;-71
2023/08/18 10:04:58;;;;;;;9.45;5.03;;;24.00;99.90;;;;;;4946608;28;20035;-72
2023/08/18 10:07:25;;;;;;;13.43;5.63;;;24.00;99.90;;;;;;4978984;28;20399;-71
2023/08/18 10:09:52;;;;;;;10.45;4.57;;;24.10;99.90;;;;;;4947056;28;20074;-72
2023/08/18 10:12:18;;;;;;;12.48;5.45;;;24.10;99.90;;;;;;4946462;28;20035;-72
2023/08/18 10:14:44;;;;;;;7.40;4.10;;;24.20;99.90;;;;;;4946421;28;20043;-73
2023/08/18 10:17:11;;;;;;;9.32;4.75;;;24.30;99.90;;;;;;4980081;28;20043;-71
2023/08/18 10:19:52;;;;;;;8.02;5.13;;;24.30;99.90;;;;;;4946476;28;20646;-71
2023/08/18 10:22:21;;;;;;;9.80;4.78;;;24.30;99.90;;;;;;4942794;28;20398;-72
2023/08/18 10:24:48;;;;;;;13.20;4.32;;;24.30;99.90;;;;;;4947076;28;20039;-72
2023/08/18 10:27:37;;;;;;;8.60;4.32;;;24.30;99.90;;;;;;4976318;28;20036;-71
2023/08/18 10:30:09;;;;;;;9.85;5.05;;;24.40;99.90;;;;;;4976227;28;20177;-71
2023/08/18 10:32:35;;;;;;;9.23;5.30;;;24.40;99.90;;;;;;4945664;28;20047;-71
2023/08/18 10:35:20;;;;;;;13.38;5.10;;;24.40;99.90;;;;;;4944459;28;20668;-71
2023/08/18 10:37:53;;;;;;;11.40;5.00;;;24.30;99.90;;;;;;4942479;28;20039;-71
2023/08/18 10:40:34;;;;;;;11.13;4.75;;;24.30;99.90;;;;;;4941859;28;20046;-73
2023/08/18 10:43:02;;;;;;;15.82;5.40;;;24.40;99.90;;;;;;4944901;28;20054;-71
2023/08/18 10:45:29;;;;;;;8.82;4.35;;;24.50;99.90;;;;;;4977232;28;20454;-71
2023/08/18 10:48:00;;;;;;;9.95;4.75;;;24.50;99.90;;;;;;4944834;28;20047;-72
2023/08/18 10:50:29;;;;;;;9.13;4.68;;;24.40;99.90;;;;;;4945266;28;20141;-71
2023/08/18 10:52:56;;;;;;;8.13;3.95;;;24.40;99.90;;;;;;4976951;28;20545;-73
2023/08/18 10:55:23;;;;;;;9.18;4.82;;;24.40;99.90;;;;;;4945077;28;20043;-71
2023/08/18 10:57:49;;;;;;;10.82;4.75;;;24.50;99.90;;;;;;4946229;28;20077;-73
2023/08/18 11:00:17;;;;;;;9.45;4.63;;;24.60;99.90;;;;;;4945142;28;20035;-73
2023/08/18 11:02:44;;;;;;;8.85;4.03;;;24.50;99.90;;;;;;4944519;28;20043;-72
2023/08/18 11:05:11;;;;;;;7.80;4.15;;;24.30;99.90;;;;;;4977083;28;20119;-72
2023/08/18 11:07:36;;;;;;;13.02;4.55;;;24.30;99.90;;;;;;4943276;28;20664;-72
2023/08/18 11:10:14;;;;;;;9.13;3.65;;;24.30;99.90;;;;;;4945270;28;20023;-72
2023/08/18 11:12:41;;;;;;;11.00;5.10;;;24.10;99.90;;;;;;4945842;28;20031;-71
2023/08/18 11:15:07;;;;;;;9.90;4.45;;;24.10;99.90;;;;;;4988848;28;20043;-71
2023/08/18 11:17:33;;;;;;;7.93;4.40;;;24.10;99.90;;;;;;4948003;28;20043;-72
2023/08/18 11:19:58;;;;;;;7.72;3.72;;;24.20;99.90;;;;;;4947218;28;20061;-72
2023/08/18 11:22:24;;;;;;;6.40;3.47;;;24.20;99.90;;;;;;4980832;28;20043;-71
2023/08/18 11:24:50;;;;;;;10.10;4.80;;;24.20;99.90;;;;;;4980680;28;20039;-71
2023/08/18 11:27:15;;;;;;;8.20;3.80;;;24.40;99.90;;;;;;4947955;28;20054;-71
2023/08/18 11:29:41;;;;;;;7.13;3.60;;;24.40;99.90;;;;;;4949037;28;20191;-71
2023/08/18 11:32:11;;;;;;;7.65;3.75;;;24.40;99.90;;;;;;4947956;28;20042;-72
2023/08/18 11:34:38;;;;;;;7.88;4.07;;;24.40;99.90;;;;;;4948944;28;20029;-71
2023/08/18 11:37:05;;;;;;;7.75;3.47;;;24.60;99.90;;;;;;4979506;28;20032;-71
2023/08/18 11:39:31;;;;;;;6.35;3.22;;;24.50;99.90;;;;;;4948575;28;20035;-71
2023/08/18 11:41:57;;;;;;;7.88;3.90;;;24.50;99.90;;;;;;4948449;28;20483;-73
2023/08/18 11:44:23;;;;;;;6.30;3.30;;;24.50;99.90;;;;;;4948623;28;20032;-73
2023/08/18 11:46:51;;;;;;;7.68;4.22;;;24.60;99.90;;;;;;4948017;28;20043;-71
2023/08/18 11:49:18;;;;;;;8.35;3.88;;;24.50;99.90;;;;;;4947100;28;20376;-71
2023/08/18 11:52:16;;;;;;;7.32;2.70;;;24.60;99.90;;;;;;4948378;28;20036;-71
2023/08/18 11:54:42;;;;;;;7.18;4.18;;;24.60;99.90;;;;;;4951186;28;20043;-72
2023/08/18 11:57:13;;;;;;;9.35;3.95;;;24.60;99.90;;;;;;4946729;28;20097;-72
2023/08/18 11:59:47;;;;;;;5.97;2.55;;;24.60;99.90;;;;;;4948299;28;20486;-71
2023/08/18 12:02:20;;;;;;;7.53;3.35;;;24.60;99.90;;;;;;4990401;28;20043;-72
2023/08/18 12:04:46;;;;;;;5.45;3.35;;;24.70;99.90;;;;;;4945471;28;20036;-73
2023/08/18 12:07:12;;;;;;;9.05;3.00;;;24.70;99.90;;;;;;4947213;28;20042;-73
2023/08/18 12:09:37;;;;;;;5.57;3.15;;;24.70;99.90;;;;;;4996238;28;20035;-72
2023/08/18 12:12:13;;;;;;;7.07;3.00;;;24.70;99.90;;;;;;4946650;28;20079;-73
2023/08/18 12:14:38;;;;;;;5.60;3.13;;;24.70;99.90;;;;;;4946312;28;20494;-72
2023/08/18 12:17:04;;;;;;;9.45;4.03;;;24.80;99.90;;;;;;4946075;28;20039;-72
2023/08/18 12:19:30;;;;;;;5.28;3.58;;;24.70;99.90;;;;;;4948592;28;20499;-74
2023/08/18 12:21:55;;;;;;;7.05;3.15;;;24.80;99.90;;;;;;4948632;28;20035;-72
2023/08/18 12:24:21;;;;;;;5.25;2.47;;;24.80;99.90;;;;;;4980721;28;20089;-72
2023/08/18 12:26:46;;;;;;;5.50;2.72;;;24.80;99.90;;;;;;4948579;28;20050;-73
2023/08/18 12:29:12;;;;;;;6.18;3.55;;;24.80;99.90;;;;;;4980104;28;20048;-71
2023/08/18 12:31:37;;;;;;;9.63;3.72;;;24.80;99.90;;;;;;4945239;28;20038;-71
2023/08/18 12:34:05;;;;;;;4.82;3.20;;;24.80;99.90;;;;;;4979599;28;20104;-72
2023/08/18 12:36:33;;;;;;;5.75;2.88;;;24.70;99.90;;;;;;4980529;28;20043;-72
2023/08/18 12:38:58;;;;;;;4.55;2.85;;;24.80;99.90;;;;;;4944860;28;20032;-72
2023/08/18 12:41:27;;;;;;;11.05;3.17;;;24.80;99.90;;;;;;4948190;28;20046;-72
2023/08/18 12:43:53;;;;;;;8.38;3.42;;;24.80;99.90;;;;;;4980941;28;20031;-71